Time;durP1;ratioP1;P1;durP2;ratioP2;P2;SDS_P1;SDS_P2;PMS_P1;PMS_P2;Temp;Humidity;BMP_temperature;BMP_pressure;BME280_temperature;BME280_humidity;BME280_pressure;Samples;Min_cycle;Max_cycle;Signal;HPM_P1;HPM_P2
2022/08/08 00:02:10;;;;;;;0.50;0.50;;;;;;;20.43;39.51;101776.59;5120490;28;20077;-81
2022/08/08 00:04:48;;;;;;;1.48;0.93;;;;;;;20.41;40.01;101782.94;5174649;28;20521;-82
2022/08/08 00:07:25;;;;;;;0.35;0.35;;;;;;;20.36;40.58;101772.53;5155948;28;20058;-81
2022/08/08 00:10:12;;;;;;;0.65;0.57;;;;;;;20.33;40.64;101775.34;5192512;28;20093;-81
2022/08/08 00:12:50;;;;;;;0.20;0.20;;;;;;;20.31;40.55;101769.22;5177474;28;20150;-81
2022/08/08 00:15:30;;;;;;;1.27;0.90;;;;;;;20.29;40.51;101763.09;5171459;28;20030;-81
2022/08/08 00:18:07;;;;;;;0.50;0.50;;;;;;;20.28;40.33;101756.06;5142557;28;20037;-79
2022/08/08 00:21:00;;;;;;;0.30;0.30;;;;;;;20.24;40.65;101760.69;5154746;28;20034;-79
2022/08/08 00:23:44;;;;;;;0.50;0.50;;;;;;;20.19;40.60;101754.72;5176849;28;20034;-79
2022/08/08 00:26:44;;;;;;;0.20;0.20;;;;;;;20.17;40.87;101753.94;5159415;28;20341;-79
2022/08/08 00:29:21;;;;;;;0.50;0.50;;;;;;;20.15;40.65;101749.63;5154475;28;20550;-79
2022/08/08 00:32:03;;;;;;;0.82;0.82;;;;;;;20.12;41.15;101750.66;5162778;28;20053;-79
2022/08/08 00:35:11;;;;;;;3.72;0.60;;;;;;;20.09;40.81;101749.00;5167582;28;20467;-79
2022/08/08 00:38:17;;;;;;;0.10;0.10;;;;;;;20.05;41.88;101755.41;5171835;28;20426;-79
2022/08/08 00:41:09;;;;;;;0.50;0.50;;;;;;;20.04;40.84;101764.34;5143549;28;20038;-78
2022/08/08 00:43:48;;;;;;;0.20;0.20;;;;;;;20.00;41.27;101765.47;5174347;28;20537;-79
2022/08/08 00:47:00;;;;;;;0.38;0.38;;;;;;;19.99;41.01;101771.72;5184439;28;20129;-79
2022/08/08 00:50:02;;;;;;;0.40;0.40;;;;;;;19.95;41.33;101765.69;5145812;28;20061;-79
2022/08/08 00:53:01;;;;;;;0.68;0.68;;;;;;;19.91;41.36;101763.25;5188661;28;20626;-79
2022/08/08 00:55:31;;;;;;;0.47;0.47;;;;;;;19.89;41.34;101770.44;5171780;28;20038;-79
2022/08/08 00:58:17;;;;;;;0.85;0.68;;;;;;;19.84;41.83;101761.81;5188171;28;20068;-79
2022/08/08 01:01:15;;;;;;;0.65;0.60;;;;;;;19.80;41.87;101764.59;5151330;28;20096;-79
2022/08/08 01:04:38;;;;;;;0.30;0.30;;;;;;;19.78;40.79;101769.16;5180301;28;20251;-79
2022/08/08 01:07:37;;;;;;;0.20;0.20;;;;;;;19.72;41.41;101769.44;5184263;28;20049;-80
2022/08/08 01:10:23;;;;;;;0.30;0.30;;;;;;;19.68;41.38;101773.22;5168551;28;20026;-80
2022/08/08 01:13:33;;;;;;;0.40;0.40;;;;;;;19.63;41.27;101777.88;5171803;28;20041;-80
2022/08/08 01:16:23;;;;;;;0.30;0.30;;;;;;;19.58;42.20;101782.56;5184445;28;20069;-80
2022/08/08 01:19:24;;;;;;;0.45;0.45;;;;;;;19.56;41.01;101774.69;5175409;28;20048;-79
2022/08/08 01:22:26;;;;;;;0.65;0.63;;;;;;;19.48;42.03;101777.69;5178774;28;20042;-80
2022/08/08 01:24:59;;;;;;;0.40;0.40;;;;;;;19.47;42.07;101777.78;5172783;28;20120;-80
2022/08/08 01:28:10;;;;;;;0.22;0.22;;;;;;;19.42;42.88;101777.16;5152807;28;20502;-80
2022/08/08 01:31:05;;;;;;;0.75;0.75;;;;;;;19.41;41.64;101764.78;5164044;28;20460;-80
2022/08/08 01:33:57;;;;;;;0.38;0.38;;;;;;;19.34;43.23;101764.19;5168361;28;20046;-80
2022/08/08 01:36:42;;;;;;;0.20;0.20;;;;;;;19.32;42.95;101761.63;5191486;28;20104;-80
2022/08/08 01:39:27;;;;;;;0.30;0.30;;;;;;;19.31;43.34;101761.66;5225880;28;20071;-81
2022/08/08 01:42:05;;;;;;;0.28;0.28;;;;;;;19.30;41.94;101755.50;5144593;28;20052;-80
2022/08/08 01:45:12;;;;;;;1.00;0.63;;;;;;;19.27;42.19;101760.09;5188581;28;20041;-79
2022/08/08 01:47:52;;;;;;;0.68;0.68;;;;;;;19.22;43.46;101762.09;5109738;28;20061;-80
2022/08/08 01:50:32;;;;;;;0.38;0.38;;;;;;;19.21;42.83;101763.06;5167877;28;20562;-80
2022/08/08 01:53:08;;;;;;;0.30;0.30;;;;;;;19.18;42.95;101764.03;5177743;28;20037;-80
2022/08/08 01:56:06;;;;;;;0.47;0.47;;;;;;;19.16;43.66;101758.81;5193076;28;20037;-80
2022/08/08 01:59:07;;;;;;;0.20;0.20;;;;;;;19.13;43.62;101772.22;5163206;28;20038;-79
2022/08/08 02:02:09;;;;;;;0.28;0.28;;;;;;;19.10;42.95;101767.06;5183432;28;20536;-80
2022/08/08 02:04:51;;;;;;;0.22;0.22;;;;;;;19.09;42.63;101768.00;5181811;28;20041;-79
2022/08/08 02:07:28;;;;;;;0.50;0.50;;;;;;;19.06;43.38;101760.16;5166904;28;20128;-79
2022/08/08 02:10:27;;;;;;;0.50;0.50;;;;;;;19.05;43.06;101768.22;5203980;28;20061;-79
2022/08/08 02:13:16;;;;;;;1.17;0.85;;;;;;;19.01;43.36;101768.34;5169937;28;20747;-79
2022/08/08 02:16:00;;;;;;;0.22;0.22;;;;;;;18.98;42.65;101759.66;5163893;28;20033;-80
2022/08/08 02:18:52;;;;;;;1.20;0.60;;;;;;;18.95;43.68;101767.78;5156623;28;20626;-80
2022/08/08 02:24:29;;;;;;;0.20;0.20;;;;;;;18.87;44.45;101778.72;5202194;28;20045;-79
2022/08/08 02:27:13;;;;;;;1.45;0.82;;;;;;;18.85;42.82;101769.94;5185611;28;20092;-79
2022/08/08 02:29:50;;;;;;;0.80;0.80;;;;;;;18.81;43.62;101774.53;5157305;28;20065;-80
2022/08/08 02:32:30;;;;;;;1.23;1.13;;;;;;;18.79;43.55;101772.88;5177515;28;20041;-80
2022/08/08 02:35:16;;;;;;;0.43;0.43;;;;;;;18.78;42.98;101771.16;5179619;28;20021;-80
2022/08/08 02:37:58;;;;;;;0.30;0.30;;;;;;;18.74;44.75;101778.41;5171630;28;20447;-80
2022/08/08 02:41:27;;;;;;;4.57;1.20;;;;;;;18.69;44.76;101765.31;5176271;28;20056;-79
2022/08/08 02:44:13;;;;;;;0.70;0.63;;;;;;;18.65;44.98;101770.84;5104516;28;20039;-80
2022/08/08 02:46:53;;;;;;;0.20;0.20;;;;;;;18.65;43.55;101765.53;5162353;28;20117;-80
2022/08/08 02:49:48;;;;;;;0.57;0.55;;;;;;;18.63;43.04;101762.09;5167968;28;20030;-79
2022/08/08 02:52:37;;;;;;;0.40;0.40;;;;;;;18.57;43.67;101763.22;5185358;28;20438;-80
2022/08/08 02:55:29;;;;;;;0.35;0.35;;;;;;;18.53;44.46;101761.63;5189070;28;20045;-80
2022/08/08 02:58:56;;;;;;;2.05;0.70;;;;;;;18.51;44.66;101766.16;5167494;28;20026;-79
2022/08/08 03:01:45;;;;;;;0.30;0.30;;;;;;;18.49;45.08;101762.69;5118924;28;20045;-80
2022/08/08 03:04:31;;;;;;;0.30;0.30;;;;;;;18.48;43.68;101769.78;5176205;28;20069;-79
2022/08/08 03:07:40;;;;;;;0.45;0.45;;;;;;;18.41;44.92;101763.03;5175266;28;20050;-79
2022/08/08 03:10:49;;;;;;;0.60;0.60;;;;;;;18.42;44.34;101758.59;5131725;28;20121;-80
2022/08/08 03:13:32;;;;;;;0.17;0.17;;;;;;;18.38;44.49;101768.50;5132119;28;20096;-80
2022/08/08 03:16:09;;;;;;;0.60;0.60;;;;;;;18.34;45.63;101758.91;5140398;28;20034;-80
2022/08/08 03:18:49;;;;;;;0.60;0.60;;;;;;;18.30;46.19;101760.84;5151685;28;20046;-80
2022/08/08 03:21:19;;;;;;;1.65;1.55;;;;;;;18.30;46.25;101770.63;5164609;28;20081;-80
2022/08/08 03:23:50;;;;;;;3.60;1.23;;;;;;;18.29;44.85;101772.38;5153539;28;20105;-80
2022/08/08 03:26:32;;;;;;;0.40;0.40;;;;;;;18.27;45.06;101766.28;5169273;28;20045;-80
2022/08/08 03:29:08;;;;;;;0.32;0.32;;;;;;;18.22;46.84;101771.78;5168270;28;21111;-79
2022/08/08 03:34:28;;;;;;;0.40;0.40;;;;;;;18.21;45.84;101779.81;5185372;28;20113;-80
2022/08/08 03:36:59;;;;;;;0.40;0.40;;;;;;;18.18;45.81;101786.13;5167046;28;20613;-79
2022/08/08 03:39:29;;;;;;;0.55;0.55;;;;;;;18.19;44.35;101787.88;5133637;28;20033;-80
2022/08/08 03:42:02;;;;;;;0.60;0.60;;;;;;;18.16;45.06;101795.94;5161200;28;20046;-80
2022/08/08 03:44:33;;;;;;;;;;;;;;;18.13;45.76;101790.78;5140864;28;20030;-80
2022/08/08 03:47:04;;;;;;;0.30;0.30;;;;;;;18.13;45.90;101789.91;5172869;28;19921;-80
2022/08/08 03:49:34;;;;;;;0.77;0.75;;;;;;;18.09;46.88;101781.22;5157567;28;20670;-80
2022/08/08 03:52:05;;;;;;;0.85;0.60;;;;;;;18.06;47.37;101789.28;5171043;28;20052;-80
2022/08/08 03:54:36;;;;;;;1.58;1.23;;;;;;;18.06;45.68;101791.94;5172767;28;20038;-80
2022/08/08 03:57:14;;;;;;;3.42;1.20;;;;;;;18.07;44.92;101802.53;5150125;28;20103;-80
2022/08/08 03:59:45;;;;;;;0.38;0.38;;;;;;;18.03;45.82;101802.72;5192192;28;20078;-80
2022/08/08 04:02:17;;;;;;;0.50;0.50;;;;;;;17.99;46.10;101809.94;5188671;28;20041;-80
2022/08/08 04:04:47;;;;;;;0.77;0.77;;;;;;;17.94;45.60;101802.13;5152829;28;20034;-80
2022/08/08 04:07:18;;;;;;;0.82;0.77;;;;;;;17.92;46.56;101805.78;5139700;28;20104;-80
2022/08/08 04:09:55;;;;;;;0.68;0.68;;;;;;;17.88;46.27;101813.00;5175081;28;20026;-80
2022/08/08 04:12:26;;;;;;;2.63;0.90;;;;;;;17.86;45.52;101812.19;5144607;28;20045;-79
2022/08/08 04:14:56;;;;;;;0.63;0.63;;;;;;;17.83;46.49;101817.63;5159177;28;20029;-80
2022/08/08 04:17:27;;;;;;;0.57;0.57;;;;;;;17.82;45.95;101817.69;5194441;28;20026;-78
2022/08/08 04:19:57;;;;;;;1.33;0.77;;;;;;;17.82;46.13;101813.22;5164506;28;20033;-79
2022/08/08 04:22:29;;;;;;;0.38;0.30;;;;;;;17.77;47.41;101815.22;5142442;28;20057;-79
2022/08/08 04:24:59;;;;;;;1.40;0.88;;;;;;;17.75;46.37;101814.41;5156698;28;20034;-80
2022/08/08 04:27:30;;;;;;;2.17;1.08;;;;;;;17.74;46.45;101820.63;5166583;28;20061;-80
2022/08/08 04:30:04;;;;;;;1.20;1.10;;;;;;;17.73;45.98;101825.09;5157146;28;20124;-79
2022/08/08 04:32:34;;;;;;;0.28;0.28;;;;;;;17.69;48.11;101822.63;5164439;28;20052;-80
2022/08/08 04:35:06;;;;;;;0.35;0.35;;;;;;;17.68;46.45;101829.72;5171037;28;20489;-80
2022/08/08 04:37:37;;;;;;;0.93;0.82;;;;;;;17.67;48.08;101821.81;5194428;28;20045;-79
2022/08/08 04:40:12;;;;;;;0.43;0.43;;;;;;;17.65;46.78;101826.31;5191618;28;20033;-79
2022/08/08 04:42:42;;;;;;;0.45;0.45;;;;;;;17.61;47.71;101821.13;5188794;28;20125;-79
2022/08/08 04:45:14;;;;;;;1.17;1.15;;;;;;;17.62;47.21;101833.50;5187283;28;20105;-78
2022/08/08 04:47:44;;;;;;;0.55;0.55;;;;;;;17.60;48.42;101840.63;5177562;28;20670;-78
2022/08/08 04:50:15;;;;;;;4.03;1.35;;;;;;;17.58;47.95;101834.50;5187485;28;20036;-79
2022/08/08 04:52:45;;;;;;;1.05;0.77;;;;;;;17.57;48.05;101840.75;5172025;28;20061;-79
2022/08/08 04:55:16;;;;;;;0.32;0.32;;;;;;;17.56;47.48;101841.66;5173546;28;20118;-80
2022/08/08 04:57:47;;;;;;;1.13;0.88;;;;;;;17.56;48.73;101839.00;5159631;28;20021;-80
2022/08/08 05:00:18;;;;;;;1.58;1.20;;;;;;;17.57;47.35;101839.91;5191881;28;20557;-80
2022/08/08 05:02:49;;;;;;;0.88;0.68;;;;;;;17.54;48.48;101838.22;5177084;28;20033;-80
2022/08/08 05:05:19;;;;;;;0.93;0.90;;;;;;;17.55;48.28;101839.97;5201844;28;20056;-79
2022/08/08 05:07:50;;;;;;;0.93;0.93;;;;;;;17.53;48.34;101843.56;5187326;28;20073;-79
2022/08/08 05:10:20;;;;;;;0.40;0.40;;;;;;;17.51;48.51;101835.69;5189761;28;20041;-80
2022/08/08 05:12:51;;;;;;;3.83;1.42;;;;;;;17.51;48.57;101830.38;5184421;28;20093;-80
2022/08/08 05:15:22;;;;;;;0.65;0.65;;;;;;;17.51;49.58;101830.38;5200306;28;20038;-80
2022/08/08 05:17:53;;;;;;;0.52;0.52;;;;;;;17.52;47.70;101832.09;5172388;28;20504;-80
2022/08/08 05:20:23;;;;;;;0.52;0.45;;;;;;;17.51;48.61;101838.34;5181458;28;20030;-80
2022/08/08 05:22:54;;;;;;;0.93;0.73;;;;;;;17.52;48.02;101829.47;5157330;28;20077;-79
2022/08/08 05:25:24;;;;;;;1.15;0.70;;;;;;;17.51;48.31;101833.03;5179983;28;20568;-78
2022/08/08 05:27:55;;;;;;;6.65;0.80;;;;;;;17.53;48.86;101831.19;5143559;28;20419;-77
2022/08/08 05:30:25;;;;;;;0.63;0.63;;;;;;;17.53;48.47;101833.84;5174725;28;20029;-77
2022/08/08 05:32:59;;;;;;;0.47;0.47;;;;;;;17.53;48.73;101839.16;5162454;28;20120;-78
2022/08/08 05:35:32;;;;;;;0.40;0.40;;;;;;;17.50;50.59;101830.44;5180469;28;20046;-78
2022/08/08 05:38:09;;;;;;;0.57;0.57;;;;;;;17.54;48.92;101832.91;5185165;28;20489;-77
2022/08/08 05:40:52;;;;;;;8.48;0.77;;;;;;;17.56;49.36;101833.69;5155647;28;20042;-78
2022/08/08 05:43:26;;;;;;;0.40;0.40;;;;;;;17.55;49.61;101834.66;5169042;28;20061;-78
2022/08/08 05:45:59;;;;;;;2.47;0.40;;;;;;;17.56;48.87;101843.47;5169760;28;20089;-78
2022/08/08 05:48:32;;;;;;;0.65;0.65;;;;;;;17.59;48.19;101849.50;5164097;28;20495;-79
2022/08/08 05:51:03;;;;;;;0.80;0.80;;;;;;;17.61;48.38;101846.78;5151533;28;20037;-78
2022/08/08 05:53:34;;;;;;;0.90;0.82;;;;;;;17.64;48.89;101843.19;5172268;28;20057;-78
2022/08/08 05:56:08;;;;;;;0.88;0.88;;;;;;;17.64;50.11;101853.78;5159311;28;20661;-78
2022/08/08 05:58:43;;;;;;;1.17;0.93;;;;;;;17.62;52.11;101849.41;5178958;28;20091;-78
2022/08/08 06:01:14;;;;;;;0.40;0.40;;;;;;;17.65;49.90;101850.19;5181484;28;20114;-77
2022/08/08 06:03:47;;;;;;;0.60;0.60;;;;;;;17.67;49.54;101853.66;5194832;28;20048;-78
2022/08/08 06:06:21;;;;;;;0.90;0.80;;;;;;;17.73;49.93;101856.94;5196710;28;20076;-80
2022/08/08 06:08:55;;;;;;;1.23;1.13;;;;;;;17.74;50.81;101861.34;5174844;28;20025;-80
2022/08/08 06:11:30;;;;;;;0.90;0.90;;;;;;;17.72;51.92;101857.88;5188637;28;20518;-79
2022/08/08 06:14:06;;;;;;;1.70;1.60;;;;;;;17.68;52.84;101855.41;5181519;28;20065;-79
2022/08/08 06:16:40;;;;;;;1.60;0.95;;;;;;;17.69;52.56;101860.63;5176541;28;20402;-79
2022/08/08 06:19:15;;;;;;;1.00;0.95;;;;;;;17.74;50.89;101861.34;5176289;28;20034;-79
2022/08/08 06:21:48;;;;;;;5.43;1.70;;;;;;;17.77;50.71;101863.84;5157574;28;20038;-79
2022/08/08 06:24:18;;;;;;;9.65;1.35;;;;;;;17.76;50.93;101866.56;5148718;28;20458;-79
2022/08/08 06:27:02;;;;;;;0.38;0.38;;;;;;;17.78;51.19;101875.34;5155415;28;20139;-79
2022/08/08 06:30:03;;;;;;;1.05;1.05;;;;;;;17.77;51.12;101869.16;5173886;28;20079;-79
2022/08/08 06:32:44;;;;;;;0.63;0.55;;;;;;;17.80;51.28;101870.84;5175443;28;20045;-79
2022/08/08 06:35:16;;;;;;;0.57;0.52;;;;;;;17.81;54.34;101874.34;5159332;28;20041;-79
2022/08/08 06:37:57;;;;;;;1.95;0.90;;;;;;;17.82;51.60;101873.44;5195834;28;20029;-79
2022/08/08 06:40:32;;;;;;;0.85;0.80;;;;;;;17.89;54.21;101883.75;5183440;28;20041;-79
2022/08/08 06:43:13;;;;;;;2.92;1.38;;;;;;;17.92;53.09;101888.94;5187458;28;20436;-79
2022/08/08 06:45:44;;;;;;;0.90;0.90;;;;;;;17.91;52.05;101887.22;5193202;28;20046;-79
2022/08/08 06:48:15;;;;;;;3.25;2.22;;;;;;;17.94;53.01;101889.75;5197488;28;20041;-80
2022/08/08 06:50:46;;;;;;;1.98;0.93;;;;;;;17.96;51.79;101878.25;5201191;28;20037;-80
2022/08/08 06:53:17;;;;;;;0.65;0.57;;;;;;;18.01;50.83;101879.78;5195219;28;20132;-80
2022/08/08 06:55:48;;;;;;;2.05;0.88;;;;;;;18.04;52.66;101881.47;5176943;28;20033;-80
2022/08/08 06:58:18;;;;;;;0.90;0.90;;;;;;;18.06;53.72;101888.44;5201725;28;20391;-79
2022/08/08 07:00:50;;;;;;;1.08;1.00;;;;;;;18.04;53.99;101887.63;5166754;28;21290;-79
2022/08/08 07:03:35;;;;;;;0.43;0.43;;;;;;;18.14;52.81;101893.41;5179176;28;20030;-80
2022/08/08 07:06:09;;;;;;;0.38;0.38;;;;;;;18.16;52.60;101894.22;5195567;28;20092;-80
2022/08/08 07:08:45;;;;;;;0.55;0.55;;;;;;;18.20;53.04;101894.97;5168508;28;20124;-79
2022/08/08 07:11:19;;;;;;;2.10;1.75;;;;;;;18.19;52.70;101895.88;5188520;28;20091;-79
2022/08/08 07:13:58;;;;;;;0.68;0.68;;;;;;;18.22;52.39;101895.78;5170922;28;20120;-79
2022/08/08 07:16:57;;;;;;;0.70;0.70;;;;;;;18.31;52.58;101899.84;5179315;28;20042;-79
2022/08/08 07:19:50;;;;;;;0.85;0.85;;;;;;;18.31;55.24;101899.84;5155611;28;20038;-79
2022/08/08 07:22:35;;;;;;;0.65;0.65;;;;;;;18.36;53.92;101908.50;5177677;28;20050;-79
2022/08/08 07:25:20;;;;;;;0.30;0.30;;;;;;;18.44;52.99;101914.38;5185285;28;20038;-80
2022/08/08 07:27:58;;;;;;;0.65;0.65;;;;;;;18.44;53.31;101905.50;5179043;28;20410;-79
2022/08/08 07:30:29;;;;;;;1.80;1.33;;;;;;;18.44;53.04;101914.38;5180596;28;20068;-79
2022/08/08 07:33:00;;;;;;;0.32;0.32;;;;;;;18.53;53.00;101913.97;5183328;28;20664;-79
2022/08/08 07:35:32;;;;;;;2.35;1.73;;;;;;;18.56;52.80;101911.19;5187118;28;20116;-79
2022/08/08 07:38:04;;;;;;;0.55;0.35;;;;;;;18.59;53.21;101910.22;5187296;28;20104;-79
2022/08/08 07:40:36;;;;;;;0.30;0.30;;;;;;;18.63;52.63;101918.91;5172005;28;20065;-79
2022/08/08 07:43:06;;;;;;;1.38;1.23;;;;;;;18.65;52.66;101911.72;5189678;28;20088;-80
2022/08/08 07:45:37;;;;;;;1.02;0.68;;;;;;;18.68;52.86;101920.44;5179307;28;20620;-80
2022/08/08 07:48:08;;;;;;;0.52;0.52;;;;;;;18.75;52.83;101921.03;5192875;28;20033;-79
2022/08/08 07:50:39;;;;;;;3.92;1.33;;;;;;;18.82;52.39;101917.19;5185899;28;20046;-79
2022/08/08 07:53:22;;;;;;;0.50;0.50;;;;;;;18.83;52.54;101918.91;5171895;28;20068;-79
2022/08/08 07:55:56;;;;;;;0.75;0.60;;;;;;;18.89;52.42;101915.13;5189784;28;20073;-79
2022/08/08 07:58:38;;;;;;;0.55;0.55;;;;;;;18.93;52.32;101919.41;5153879;28;20419;-79
2022/08/08 08:01:19;;;;;;;0.52;0.52;;;;;;;19.01;52.76;101919.09;5180550;28;20037;-80
2022/08/08 08:04:04;;;;;;;0.77;0.77;;;;;;;19.07;52.77;101915.31;5187971;28;20037;-80
2022/08/08 08:06:36;;;;;;;1.17;1.08;;;;;;;19.09;52.09;101924.94;5158025;28;20065;-80
2022/08/08 08:09:12;;;;;;;0.77;0.77;;;;;;;19.31;52.99;101918.66;5194777;28;20033;-80
2022/08/08 08:11:48;;;;;;;1.95;1.15;;;;;;;19.28;52.78;101924.13;5174515;28;20084;-78
2022/08/08 08:14:35;;;;;;;1.33;1.23;;;;;;;19.32;52.68;101920.38;5163226;28;20073;-79
2022/08/08 08:17:08;;;;;;;1.15;1.15;;;;;;;19.40;51.94;101928.88;5189757;28;20536;-80
2022/08/08 08:19:41;;;;;;;1.17;1.08;;;;;;;19.44;51.78;101927.81;5199438;28;20518;-78
2022/08/08 08:22:12;;;;;;;3.22;0.90;;;;;;;19.46;51.63;101931.25;5195429;28;20104;-78
2022/08/08 08:24:43;;;;;;;1.17;1.08;;;;;;;19.46;51.96;101928.59;5190920;28;20030;-79
2022/08/08 08:27:15;;;;;;;1.35;1.25;;;;;;;19.48;51.65;101932.06;5177951;28;20077;-79
2022/08/08 08:29:46;;;;;;;4.10;2.17;;;;;;;19.60;52.06;101922.66;5206029;28;20041;-79
2022/08/08 08:32:16;;;;;;;5.05;1.27;;;;;;;19.65;51.67;101927.75;5203260;28;20041;-79
2022/08/08 08:34:49;;;;;;;1.13;1.10;;;;;;;19.67;51.76;101925.91;5183170;28;20117;-79
2022/08/08 08:37:20;;;;;;;0.60;0.60;;;;;;;19.75;51.68;101917.56;5164383;28;20048;-79
2022/08/08 08:39:51;;;;;;;1.02;1.02;;;;;;;19.74;51.35;101922.00;5164991;28;20308;-79
2022/08/08 08:42:25;;;;;;;0.85;0.85;;;;;;;19.76;51.45;101920.16;5158023;28;20092;-79
2022/08/08 08:44:56;;;;;;;0.70;0.70;;;;;;;19.80;51.32;101915.53;5191908;28;20091;-79
2022/08/08 08:47:28;;;;;;;0.45;0.45;;;;;;;19.86;50.96;101931.25;5209948;28;20037;-79
2022/08/08 08:49:59;;;;;;;7.13;0.83;;;;;;;19.89;50.75;101915.16;5179990;28;20405;-79
2022/08/08 08:52:30;;;;;;;0.65;0.65;;;;;;;20.00;50.51;101921.75;5191423;28;20130;-79
2022/08/08 08:55:02;;;;;;;0.50;0.50;;;;;;;20.02;50.36;101920.75;5193754;28;20034;-79
2022/08/08 08:57:33;;;;;;;0.40;0.40;;;;;;;20.05;50.02;101925.91;5170750;28;20029;-79
2022/08/08 09:00:09;;;;;;;1.73;1.00;;;;;;;20.08;50.03;101919.59;5157728;28;20033;-79
2022/08/08 09:02:41;;;;;;;0.50;0.50;;;;;;;20.13;49.79;101918.41;5168835;28;20053;-79
2022/08/08 09:05:13;;;;;;;0.50;0.50;;;;;;;20.18;49.50;101922.66;5160076;28;20042;-79
2022/08/08 09:07:45;;;;;;;0.40;0.40;;;;;;;20.24;49.50;101933.03;5175877;28;20299;-80
2022/08/08 09:10:17;;;;;;;1.90;1.38;;;;;;;20.23;49.37;101925.97;5160081;28;20030;-80
2022/08/08 09:12:49;;;;;;;1.33;1.23;;;;;;;20.31;49.20;101925.59;5149188;28;20517;-80
2022/08/08 09:15:20;;;;;;;1.50;1.40;;;;;;;20.32;49.08;101925.50;5163499;28;20450;-80
2022/08/08 09:17:52;;;;;;;0.55;0.55;;;;;;;20.47;48.68;101921.25;5175353;28;20026;-80
2022/08/08 09:20:25;;;;;;;0.73;0.73;;;;;;;20.46;48.62;101924.84;5158289;28;20539;-80
2022/08/08 09:22:55;;;;;;;0.47;0.47;;;;;;;20.49;48.83;101915.81;5184079;28;20037;-80
2022/08/08 09:25:26;;;;;;;2.20;1.40;;;;;;;20.53;48.74;101928.06;5183392;28;20038;-80
2022/08/08 09:27:57;;;;;;;2.25;0.40;;;;;;;20.62;48.34;101935.56;5166144;28;20794;-80
2022/08/08 09:30:32;;;;;;;0.40;0.40;;;;;;;20.67;48.33;101930.91;5179215;28;20030;-79
2022/08/08 09:33:03;;;;;;;2.08;1.05;;;;;;;20.73;48.03;101922.59;5161085;28;20026;-79
2022/08/08 09:35:36;;;;;;;0.20;0.20;;;;;;;20.83;47.51;101922.13;5168935;28;20046;-78
2022/08/08 09:38:08;;;;;;;0.75;0.73;;;;;;;20.78;47.79;101924.19;5170530;28;20135;-78
2022/08/08 09:40:42;;;;;;;0.47;0.47;;;;;;;20.82;47.65;101920.41;5145707;28;20492;-79
2022/08/08 09:43:16;;;;;;;0.63;0.63;;;;;;;20.93;47.50;101923.41;5165626;28;20441;-79
2022/08/08 09:46:15;;;;;;;0.50;0.50;;;;;;;21.02;47.09;101928.25;5173666;28;20057;-79
2022/08/08 09:48:46;;;;;;;0.98;0.98;;;;;;;20.98;47.27;101924.00;5170549;28;20038;-79
2022/08/08 09:51:23;;;;;;;0.30;0.30;;;;;;;20.98;46.70;101921.34;5171587;28;20045;-78
2022/08/08 09:54:03;;;;;;;0.30;0.30;;;;;;;20.96;47.13;101920.56;5189597;28;20438;-78
2022/08/08 09:56:40;;;;;;;1.05;1.00;;;;;;;21.10;46.33;101924.31;5169351;28;20073;-79
2022/08/08 09:59:12;;;;;;;0.85;0.60;;;;;;;21.07;46.79;101920.00;5169914;28;20684;-79
2022/08/08 10:01:45;;;;;;;2.42;1.00;;;;;;;21.12;46.95;101923.28;5185458;28;20049;-79
2022/08/08 10:04:21;;;;;;;0.68;0.68;;;;;;;21.22;46.38;101910.31;5202253;28;20569;-78
2022/08/08 10:06:52;;;;;;;0.30;0.30;;;;;;;21.26;46.32;101917.22;5182626;28;20345;-78
2022/08/08 10:09:32;;;;;;;0.25;0.25;;;;;;;21.20;46.42;101921.09;5190563;28;20037;-78
2022/08/08 10:12:04;;;;;;;0.60;0.60;;;;;;;21.27;46.24;101924.28;5195278;28;20565;-79
2022/08/08 10:14:36;;;;;;;0.63;0.50;;;;;;;21.33;45.68;101920.41;5212115;28;20083;-78
2022/08/08 10:17:10;;;;;;;0.68;0.68;;;;;;;21.38;46.12;101923.72;5182857;28;20497;-78
2022/08/08 10:19:43;;;;;;;0.85;0.85;;;;;;;21.43;45.74;101910.13;5191515;28;20036;-79
2022/08/08 10:22:18;;;;;;;0.60;0.60;;;;;;;21.45;45.48;101913.53;5178615;28;20475;-78
2022/08/08 10:24:53;;;;;;;0.55;0.55;;;;;;;21.50;45.89;101914.19;5191994;28;20045;-78
2022/08/08 10:27:28;;;;;;;1.00;0.85;;;;;;;21.53;45.06;101906.84;5168990;28;20034;-78
2022/08/08 10:30:00;;;;;;;1.08;0.82;;;;;;;21.61;45.47;101914.47;5194222;28;20064;-78
2022/08/08 10:32:31;;;;;;;0.57;0.57;;;;;;;21.73;44.09;101918.28;5165733;28;20505;-78
2022/08/08 10:35:23;;;;;;;0.47;0.47;;;;;;;21.74;44.84;101914.66;5174753;28;20025;-79
2022/08/08 10:38:00;;;;;;;0.30;0.30;;;;;;;21.77;43.89;101903.81;5193285;28;20033;-79
2022/08/08 10:40:31;;;;;;;0.43;0.35;;;;;;;21.77;44.70;101901.13;5186839;28;20026;-78
2022/08/08 10:43:07;;;;;;;0.20;0.20;;;;;;;21.76;44.78;101903.91;5190620;28;20079;-79
2022/08/08 10:45:45;;;;;;;0.40;0.40;;;;;;;21.84;44.04;101904.34;5181093;28;20128;-79
2022/08/08 10:48:16;;;;;;;0.43;0.43;;;;;;;21.82;43.76;101907.06;5187049;28;20116;-79
2022/08/08 10:50:46;;;;;;;0.65;0.65;;;;;;;21.82;44.55;101904.41;5190456;28;20235;-79
2022/08/08 10:53:18;;;;;;;0.20;0.20;;;;;;;21.88;44.13;101905.88;5198495;28;20034;-78
2022/08/08 10:55:56;;;;;;;0.47;0.47;;;;;;;22.05;43.52;101907.59;5193672;28;20129;-78
2022/08/08 10:58:27;;;;;;;0.30;0.30;;;;;;;21.98;43.23;101901.75;5175138;28;20030;-78
2022/08/08 11:01:06;;;;;;;0.65;0.65;;;;;;;22.00;43.75;101898.97;5193442;28;20050;-78
2022/08/08 11:03:44;;;;;;;0.90;0.50;;;;;;;22.14;43.58;101892.84;5191322;28;20116;-78
2022/08/08 11:06:15;;;;;;;0.47;0.47;;;;;;;22.17;43.30;101895.34;5200456;28;20041;-79
2022/08/08 11:08:45;;;;;;;0.77;0.77;;;;;;;22.12;43.11;101897.41;5175251;28;20030;-78
2022/08/08 11:11:17;;;;;;;0.30;0.30;;;;;;;22.19;43.49;101890.75;5178180;28;20060;-78
2022/08/08 11:13:47;;;;;;;0.70;0.70;;;;;;;22.30;43.23;101884.81;5160666;28;20176;-78
2022/08/08 11:16:23;;;;;;;0.75;0.75;;;;;;;22.31;41.90;101876.69;5169071;28;20617;-78
2022/08/08 11:18:54;;;;;;;0.20;0.20;;;;;;;22.37;41.64;101882.63;5194387;28;20498;-78
2022/08/08 11:21:25;;;;;;;0.40;0.40;;;;;;;22.42;42.55;101878.75;5192287;28;20052;-79
2022/08/08 11:23:58;;;;;;;0.30;0.30;;;;;;;22.43;42.23;101874.28;5182985;28;20030;-79
2022/08/08 11:26:30;;;;;;;0.30;0.30;;;;;;;22.52;42.64;101879.06;5181941;28;20734;-78
2022/08/08 11:29:05;;;;;;;0.57;0.57;;;;;;;22.58;42.34;101878.72;5199520;28;20042;-78
2022/08/08 11:31:47;;;;;;;0.30;0.30;;;;;;;22.71;42.16;101878.84;5188946;28;20732;-78
2022/08/08 11:34:20;;;;;;;0.75;0.35;;;;;;;22.84;39.88;101880.75;5188364;28;20037;-78
2022/08/08 11:36:54;;;;;;;0.30;0.30;;;;;;;22.91;40.06;101880.31;5186165;28;20073;-78
2022/08/08 11:39:25;;;;;;;2.08;0.60;;;;;;;22.89;40.41;101876.84;5179953;28;20606;-79
2022/08/08 11:41:56;;;;;;;0.30;0.30;;;;;;;;;;5175350;28;20080;-78
2022/08/08 11:44:27;;;;;;;0.38;0.38;;;;;;;23.02;41.36;101876.97;5185695;28;20092;-78
2022/08/08 11:46:59;;;;;;;0.38;0.38;;;;;;;22.99;40.68;101877.13;5161768;28;20041;-78
2022/08/08 11:49:31;;;;;;;0.35;0.35;;;;;;;23.06;41.11;101874.97;5182070;28;20510;-78
2022/08/08 11:52:01;;;;;;;0.27;0.27;;;;;;;23.15;41.18;101879.75;5195131;28;20045;-78
2022/08/08 11:54:33;;;;;;;0.30;0.30;;;;;;;23.18;41.18;101879.56;5201793;28;20342;-78
2022/08/08 11:57:18;;;;;;;0.30;0.30;;;;;;;23.22;41.20;101862.38;5177181;28;20033;-78
2022/08/08 12:00:00;;;;;;;0.15;0.15;;;;;;;23.35;40.74;101864.25;5194555;28;20036;-77
2022/08/08 12:02:31;;;;;;;0.30;0.30;;;;;;;23.52;39.97;101860.53;5169966;28;20041;-78
2022/08/08 12:05:08;;;;;;;0.30;0.30;;;;;;;23.54;40.60;101858.63;5155076;28;20068;-78
2022/08/08 12:07:47;;;;;;;0.20;0.20;;;;;;;23.58;39.81;101869.03;5186141;28;20399;-78
2022/08/08 12:10:24;;;;;;;1.40;1.25;;;;;;;23.71;39.81;101855.72;5124558;28;20070;-78
2022/08/08 12:13:06;;;;;;;0.20;0.20;;;;;;;23.76;39.77;101863.41;5165492;28;20100;-78
2022/08/08 12:15:38;;;;;;;0.32;0.32;;;;;;;23.98;39.42;101854.03;5197794;28;20125;-78
2022/08/08 12:18:16;;;;;;;0.98;0.98;;;;;;;23.92;39.52;101857.09;5171622;28;20057;-78
2022/08/08 12:20:47;;;;;;;0.52;0.52;;;;;;;24.07;37.78;101856.09;5192855;28;20061;-78
2022/08/08 12:23:28;;;;;;;1.10;0.80;;;;;;;24.15;38.97;101851.09;5162089;28;20107;-78